Time;durP1;ratioP1;P1;durP2;ratioP2;P2;SDS_P1;SDS_P2;PMS_P1;PMS_P2;Temp;Humidity;BMP_temperature;BMP_pressure;BME280_temperature;BME280_humidity;BME280_pressure;Samples;Min_cycle;Max_cycle;Signal;HPM_P1;HPM_P2
2023/12/06 00:01:41;;;;;;;16.23;8.45;;;;;;;2.90;77.02;98599.28;5092218;28;20031;-49
2023/12/06 00:04:07;;;;;;;15.73;8.45;;;;;;;3.41;76.99;98594.97;5092213;28;20573;-49
2023/12/06 00:06:33;;;;;;;15.27;8.90;;;;;;;3.65;75.85;98583.06;5090662;28;20138;-49
2023/12/06 00:08:59;;;;;;;13.10;7.38;;;;;;;3.66;75.57;98584.66;5092026;28;20052;-49
2023/12/06 00:11:25;;;;;;;14.90;8.20;;;;;;;4.18;75.92;98581.81;5092002;28;20016;-49
2023/12/06 00:13:51;;;;;;;13.50;7.85;;;;;;;4.64;74.44;98579.53;5090701;28;20028;-49
2023/12/06 00:16:17;;;;;;;15.88;7.32;;;;;;;4.91;72.92;98580.13;5091950;28;20406;-49
2023/12/06 00:18:45;;;;;;;15.40;8.18;;;;;;;5.08;72.01;98570.50;5091014;28;20062;-49
2023/12/06 00:21:11;;;;;;;14.27;6.70;;;;;;;5.26;70.97;98568.47;5091934;28;20020;-49
2023/12/06 00:23:36;;;;;;;16.88;7.05;;;;;;;5.15;69.80;98574.03;5091921;28;20030;-49
2023/12/06 00:26:02;;;;;;;11.23;6.90;;;;;;;5.03;69.52;98570.16;5091886;28;20031;-49
2023/12/06 00:28:28;;;;;;;13.73;7.55;;;;;;;4.91;69.13;98578.34;5091858;28;20133;-49
2023/12/06 00:30:53;;;;;;;15.73;7.47;;;;;;;4.79;69.51;98577.09;5091611;28;20515;-50
2023/12/06 00:33:19;;;;;;;15.40;7.38;;;;;;;4.74;70.38;98581.94;5071639;28;20047;-49
2023/12/06 00:35:45;;;;;;;13.52;7.63;;;;;;;4.93;71.48;98584.19;5071560;28;20410;-49
2023/12/06 00:38:10;;;;;;;13.43;8.20;;;;;;;5.20;70.27;98572.56;5071611;28;20020;-49
2023/12/06 00:40:36;;;;;;;12.95;7.18;;;;;;;5.37;70.18;98575.91;5071621;28;20038;-49
2023/12/06 00:43:05;;;;;;;13.52;8.07;;;;;;;5.52;69.05;98577.81;5071561;28;20138;-49
2023/12/06 00:45:30;;;;;;;15.93;7.82;;;;;;;5.67;69.09;98575.28;5071502;28;20024;-49
2023/12/06 00:47:56;;;;;;;15.45;9.02;;;;;;;5.64;67.78;98568.63;5071457;28;20016;-50
2023/12/06 00:50:22;;;;;;;14.75;8.65;;;;;;;5.27;67.64;98569.28;5071451;28;20035;-49
2023/12/06 00:52:48;;;;;;;18.88;10.23;;;;;;;4.64;67.11;98574.31;5070185;28;20433;-49
2023/12/06 00:55:13;;;;;;;17.60;9.75;;;;;;;3.81;68.23;98575.28;5070128;28;20098;-49
2023/12/06 00:57:39;;;;;;;15.68;9.98;;;;;;;3.33;70.20;98579.38;5071418;28;20051;-49
2023/12/06 01:00:06;;;;;;;15.00;9.07;;;;;;;3.23;71.32;98581.28;5040698;28;20035;-49
2023/12/06 01:02:32;;;;;;;17.08;9.32;;;;;;;2.85;72.22;98583.38;5075338;28;20035;-49
2023/12/06 01:04:58;;;;;;;16.05;8.95;;;;;;;2.45;73.24;98580.34;5073974;28;20024;-49
2023/12/06 01:07:23;;;;;;;12.93;7.10;;;;;;;2.12;74.12;98582.69;5075088;28;20081;-47
2023/12/06 01:09:49;;;;;;;11.75;6.90;;;;;;;1.87;75.40;98581.66;5075380;28;20025;-47
2023/12/06 01:12:15;;;;;;;14.57;7.97;;;;;;;2.02;77.59;98586.31;5073871;28;20052;-46
2023/12/06 01:14:41;;;;;;;14.15;7.28;;;;;;;2.47;78.18;98587.97;5073781;28;20032;-47
2023/12/06 01:17:06;;;;;;;17.90;8.80;;;;;;;2.69;77.54;98586.66;5073718;28;20494;-47
2023/12/06 01:19:32;;;;;;;15.57;8.93;;;;;;;2.58;76.08;98582.56;5073675;28;20024;-47
2023/12/06 01:21:58;;;;;;;17.33;9.13;;;;;;;2.23;76.39;98586.00;5074952;28;20494;-46
2023/12/06 01:24:24;;;;;;;11.13;7.43;;;;;;;1.83;77.38;98584.66;5074817;28;20025;-47
2023/12/06 01:26:50;;;;;;;18.83;8.02;;;;;;;1.62;77.98;98593.53;5056830;28;20166;-47
2023/12/06 01:29:16;;;;;;;13.57;7.78;;;;;;;1.66;79.32;98591.47;5074730;28;20020;-47
2023/12/06 01:31:42;;;;;;;17.55;11.70;;;;;;;2.08;80.59;98594.28;5079756;28;20044;-47
2023/12/06 01:34:07;;;;;;;17.88;8.77;;;;;;;2.31;80.29;98589.47;5095011;28;20030;-47
2023/12/06 01:36:34;;;;;;;13.00;7.93;;;;;;;2.59;79.62;98594.53;5093646;28;20028;-47
2023/12/06 01:39:01;;;;;;;14.40;8.43;;;;;;;2.44;77.81;98594.28;5095196;28;20032;-47
2023/12/06 01:41:26;;;;;;;15.57;7.93;;;;;;;2.03;77.37;98598.28;5094798;28;20030;-47
2023/12/06 01:43:52;;;;;;;15.35;7.50;;;;;;;1.81;78.88;98597.75;5094832;28;20028;-47
2023/12/06 01:46:19;;;;;;;12.40;7.57;;;;;;;1.67;79.29;98600.84;5093418;28;20035;-47
2023/12/06 01:48:46;;;;;;;11.98;7.35;;;;;;;1.52;79.29;98603.91;5076472;28;20405;-47
2023/12/06 01:51:13;;;;;;;11.75;7.25;;;;;;;1.57;80.19;98603.47;5094691;28;20020;-47
2023/12/06 01:53:39;;;;;;;11.00;6.03;;;;;;;1.95;81.43;98609.38;5094704;28;20486;-47
2023/12/06 01:56:06;;;;;;;13.25;5.95;;;;;;;2.70;82.78;98609.84;5094592;28;20016;-47
2023/12/06 01:58:35;;;;;;;11.40;5.88;;;;;;;3.82;82.04;98610.66;5093265;28;20032;-47
2023/12/06 02:01:01;;;;;;;12.55;7.22;;;;;;;4.84;79.83;98608.59;5094469;28;20069;-47
2023/12/06 02:03:26;;;;;;;17.02;7.05;;;;;;;5.67;77.66;98602.09;5094450;28;20024;-47
2023/12/06 02:05:53;;;;;;;14.27;6.90;;;;;;;5.81;74.92;98603.19;5093078;28;20016;-48
2023/12/06 02:08:20;;;;;;;10.73;6.95;;;;;;;5.56;74.32;98598.09;5092947;28;20032;-48
2023/12/06 02:10:45;;;;;;;14.13;8.23;;;;;;;5.10;73.51;98610.16;5093431;28;20020;-47
2023/12/06 02:13:11;;;;;;;11.10;6.72;;;;;;;4.39;72.66;98607.34;5094218;28;20158;-47
2023/12/06 02:15:37;;;;;;;13.10;7.50;;;;;;;4.16;73.62;98614.94;5094220;28;20035;-47
2023/12/06 02:18:04;;;;;;;17.90;8.32;;;;;;;4.10;73.00;98607.78;5093010;28;20024;-47
2023/12/06 02:20:31;;;;;;;14.48;6.57;;;;;;;4.03;73.01;98618.00;5092815;28;20374;-47
2023/12/06 02:22:58;;;;;;;15.57;7.30;;;;;;;4.07;73.52;98614.13;5093994;28;20107;-47
2023/12/06 02:25:24;;;;;;;12.63;7.35;;;;;;;4.49;73.96;98613.19;5093949;28;20043;-47
2023/12/06 02:27:50;;;;;;;19.30;8.20;;;;;;;4.65;71.84;98611.53;5094157;28;20024;-47
2023/12/06 02:30:16;;;;;;;15.55;8.73;;;;;;;4.69;72.19;98618.00;5093896;28;20569;-47
2023/12/06 02:32:42;;;;;;;19.58;8.68;;;;;;;4.82;71.30;98612.34;5092294;28;20040;-47
2023/12/06 02:35:28;;;;;;;19.48;8.40;;;;;;;4.66;70.59;98613.16;5092452;28;20028;-47
2023/12/06 02:37:57;;;;;;;16.05;9.23;;;;;;;4.64;70.70;98618.50;5092420;28;20055;-47
2023/12/06 02:40:25;;;;;;;14.05;8.88;;;;;;;4.65;69.63;98616.72;5092373;28;20024;-47
2023/12/06 02:42:51;;;;;;;12.25;7.32;;;;;;;4.50;69.52;98619.97;5093698;28;20145;-47
2023/12/06 02:45:17;;;;;;;13.90;6.55;;;;;;;4.43;70.07;98613.00;5093589;28;20059;-47
2023/12/06 02:47:43;;;;;;;14.85;7.07;;;;;;;4.24;69.12;98609.75;5093528;28;20016;-47
2023/12/06 02:50:08;;;;;;;13.55;7.97;;;;;;;4.15;70.27;98611.53;5092247;28;20062;-47
2023/12/06 02:52:34;;;;;;;10.00;6.13;;;;;;;4.28;70.73;98613.63;5092183;28;20397;-47
2023/12/06 02:55:00;;;;;;;15.52;6.53;;;;;;;4.35;70.11;98598.25;5093452;28;20573;-47
2023/12/06 02:57:25;;;;;;;14.98;7.40;;;;;;;4.34;69.75;98600.00;5093329;28;20022;-47
2023/12/06 02:59:51;;;;;;;11.63;5.72;;;;;;;4.23;69.23;98597.75;5093640;28;20058;-47
2023/12/06 03:02:17;;;;;;;15.23;6.07;;;;;;;4.09;68.60;98601.78;5093230;28;20012;-47
2023/12/06 03:04:42;;;;;;;19.05;7.45;;;;;;;3.73;68.90;98612.44;5093308;28;20486;-47
2023/12/06 03:07:08;;;;;;;10.35;5.88;;;;;;;3.78;69.66;98609.34;5091716;28;20028;-47
2023/12/06 03:09:34;;;;;;;10.93;6.93;;;;;;;3.66;70.32;98595.84;5093118;28;20039;-47
2023/12/06 03:11:59;;;;;;;14.65;6.50;;;;;;;3.90;71.65;98599.47;5091832;28;20016;-47
2023/12/06 03:14:25;;;;;;;12.35;6.20;;;;;;;4.08;71.14;98604.53;5093020;28;20542;-47
2023/12/06 03:16:51;;;;;;;10.07;5.72;;;;;;;4.15;70.99;98597.75;5091730;28;20157;-47
2023/12/06 03:19:16;;;;;;;15.75;5.93;;;;;;;4.32;70.42;98593.34;5093160;28;20039;-47
2023/12/06 03:21:42;;;;;;;14.10;5.55;;;;;;;4.20;69.54;98600.66;5092892;28;20056;-47
2023/12/06 03:24:08;;;;;;;10.85;5.25;;;;;;;4.08;70.22;98591.56;5092872;28;20129;-47
2023/12/06 03:26:33;;;;;;;10.45;5.90;;;;;;;4.05;70.41;98582.31;5091495;28;20397;-47
2023/12/06 03:28:59;;;;;;;14.15;6.18;;;;;;;4.05;70.63;98584.91;5092684;28;20028;-47
2023/12/06 03:31:25;;;;;;;10.55;5.20;;;;;;;3.94;70.12;98590.41;5092482;28;20502;-48
2023/12/06 03:33:50;;;;;;;13.20;9.40;;;;;;;3.46;69.85;98592.72;5091422;28;20060;-47
2023/12/06 03:36:16;;;;;;;13.50;6.63;;;;;;;3.06;70.85;98596.78;5092635;28;20039;-47
2023/12/06 03:38:42;;;;;;;13.68;7.57;;;;;;;2.67;72.16;98597.16;5092624;28;20149;-47
2023/12/06 03:41:08;;;;;;;15.15;6.32;;;;;;;2.57;73.17;98597.25;5091323;28;20104;-47
2023/12/06 03:43:34;;;;;;;18.40;11.15;;;;;;;2.72;74.08;98599.31;5091228;28;20432;-47
2023/12/06 03:45:59;;;;;;;10.52;5.95;;;;;;;2.75;73.74;98599.00;5092457;28;20024;-47
2023/12/06 03:48:25;;;;;;;10.20;5.50;;;;;;;2.59;73.41;98597.13;5091025;28;20020;-47
2023/12/06 03:50:51;;;;;;;19.98;8.65;;;;;;;2.66;74.49;98605.13;5074263;28;20085;-47
2023/12/06 03:53:16;;;;;;;9.77;5.82;;;;;;;3.14;75.27;98599.41;5092634;28;20103;-47
2023/12/06 03:55:43;;;;;;;11.23;7.13;;;;;;;3.84;75.28;98594.94;5090939;28;20024;-47
2023/12/06 03:58:09;;;;;;;15.15;6.93;;;;;;;4.29;74.11;98594.50;5092302;28;20493;-47
2023/12/06 04:00:34;;;;;;;16.20;6.38;;;;;;;4.73;73.22;98599.34;5092203;28;20076;-47
2023/12/06 04:03:00;;;;;;;16.05;6.22;;;;;;;4.92;71.70;98590.34;5090891;28;20107;-47
2023/12/06 04:05:26;;;;;;;13.43;6.30;;;;;;;5.31;71.11;98587.00;5092139;28;20111;-47
2023/12/06 04:07:52;;;;;;;12.85;6.45;;;;;;;5.69;69.88;98581.13;5090762;28;20058;-48
2023/12/06 04:10:17;;;;;;;15.70;8.20;;;;;;;5.95;68.16;98579.03;5092083;28;20024;-48
2023/12/06 04:12:43;;;;;;;13.90;6.97;;;;;;;6.12;68.03;98584.16;5090783;28;20442;-47
2023/12/06 04:15:11;;;;;;;14.75;8.48;;;;;;;6.25;67.26;98584.34;5090741;28;20036;-47
2023/12/06 04:17:36;;;;;;;10.75;7.22;;;;;;;6.30;66.77;98586.44;5091972;28;20027;-48
2023/12/06 04:20:05;;;;;;;13.82;6.88;;;;;;;6.32;66.28;98594.91;5091971;28;20032;-48
2023/12/06 04:22:30;;;;;;;17.67;10.77;;;;;;;6.27;65.82;98587.59;5091971;28;20020;-48
2023/12/06 04:24:56;;;;;;;36.53;15.20;;;;;;;6.11;66.24;98593.72;5091877;28;20039;-48
2023/12/06 04:27:22;;;;;;;28.98;11.60;;;;;;;6.33;66.55;98592.09;5090490;28;20387;-47
2023/12/06 04:29:47;;;;;;;14.85;7.63;;;;;;;6.62;65.24;98587.97;5091949;28;20397;-47
2023/12/06 04:32:13;;;;;;;19.73;8.57;;;;;;;6.88;64.64;98602.38;5091623;28;20588;-48
2023/12/06 04:34:48;;;;;;;15.25;7.57;;;;;;;6.97;63.47;98588.28;5098000;28;20102;-47
2023/12/06 04:37:14;;;;;;;19.77;10.55;;;;;;;6.97;62.92;98596.91;5098578;28;20035;-49
2023/12/06 04:39:39;;;;;;;26.35;11.90;;;;;;;7.11;62.79;98602.31;5080371;28;20053;-49
2023/12/06 04:42:05;;;;;;;19.27;8.45;;;;;;;7.18;62.19;98597.97;5098543;28;20024;-50
2023/12/06 04:44:30;;;;;;;20.75;9.57;;;;;;;7.16;61.66;98599.97;5097156;28;20024;-49
2023/12/06 04:46:56;;;;;;;18.27;9.73;;;;;;;7.01;61.26;98602.56;5098449;28;20103;-50
2023/12/06 04:49:22;;;;;;;14.68;7.03;;;;;;;6.80;61.07;98608.47;5097147;28;20032;-50
2023/12/06 04:51:47;;;;;;;10.38;6.40;;;;;;;6.23;61.37;98607.16;5098407;28;20016;-49
2023/12/06 04:54:13;;;;;;;11.27;5.10;;;;;;;5.59;62.33;98604.75;5097108;28;20032;-49
2023/12/06 04:56:40;;;;;;;7.85;5.20;;;;;;;4.94;63.58;98611.00;5098342;28;20551;-49
2023/12/06 04:59:05;;;;;;;9.48;6.20;;;;;;;4.42;65.52;98614.78;5097031;28;20032;-49
2023/12/06 05:01:32;;;;;;;14.57;6.78;;;;;;;4.21;66.62;98615.28;5098412;28;20073;-49
2023/12/06 05:03:58;;;;;;;22.10;11.80;;;;;;;4.17;68.34;98609.59;5098333;28;20020;-49
2023/12/06 05:06:24;;;;;;;16.65;9.40;;;;;;;4.60;69.63;98609.41;5098189;28;20038;-49
2023/12/06 05:08:49;;;;;;;19.92;13.23;;;;;;;4.81;68.78;98601.13;5098234;28;20573;-49
2023/12/06 05:11:15;;;;;;;10.95;5.03;;;;;;;4.85;67.42;98596.38;5096888;28;20119;-49
2023/12/06 05:13:41;;;;;;;7.13;4.32;;;;;;;4.57;66.58;98594.97;5097067;28;20166;-49
2023/12/06 05:16:07;;;;;;;12.60;6.13;;;;;;;4.12;67.45;98600.66;5098189;28;20020;-49
2023/12/06 05:18:32;;;;;;;13.15;6.18;;;;;;;3.97;69.55;98597.88;5098174;28;20401;-49
2023/12/06 05:20:58;;;;;;;9.35;5.13;;;;;;;4.20;70.14;98598.88;5098184;28;20031;-49
2023/12/06 05:23:24;;;;;;;11.05;5.60;;;;;;;4.28;70.63;98598.06;5096815;28;20024;-49
2023/12/06 05:25:49;;;;;;;15.20;5.53;;;;;;;4.77;71.49;98594.63;5098014;28;20047;-49
2023/12/06 05:28:15;;;;;;;15.52;7.70;;;;;;;5.32;69.69;98591.22;5096668;28;20114;-49
2023/12/06 05:30:41;;;;;;;13.00;6.78;;;;;;;5.64;68.62;98586.03;5096794;28;20102;-49
2023/12/06 05:33:07;;;;;;;11.65;7.18;;;;;;;5.89;67.98;98591.91;5096596;28;20523;-49
2023/12/06 05:35:33;;;;;;;11.27;7.13;;;;;;;5.73;66.21;98591.00;5098063;28;20020;-49
2023/12/06 05:37:59;;;;;;;11.07;5.55;;;;;;;5.18;65.97;98597.94;5098017;28;20023;-49
2023/12/06 05:40:24;;;;;;;10.95;5.63;;;;;;;4.84;67.46;98605.97;5098002;28;20486;-49
2023/12/06 05:42:50;;;;;;;14.25;7.38;;;;;;;4.64;67.84;98605.53;5098006;28;20085;-49
2023/12/06 05:45:16;;;;;;;15.23;6.00;;;;;;;5.19;70.29;98607.38;5093466;28;20097;-49
2023/12/06 05:47:42;;;;;;;15.00;6.18;;;;;;;5.66;68.01;98610.91;5093376;28;20119;-49
2023/12/06 05:50:10;;;;;;;15.60;10.10;;;;;;;5.51;66.14;98605.59;5093337;28;20042;-50
2023/12/06 05:52:36;;;;;;;10.88;5.65;;;;;;;5.30;66.97;98603.59;5094596;28;20034;-49
2023/12/06 05:55:02;;;;;;;9.52;4.88;;;;;;;5.36;66.63;98600.31;5094618;28;20020;-50
2023/12/06 05:57:28;;;;;;;11.00;5.07;;;;;;;5.60;67.28;98599.38;5094546;28;20032;-50
2023/12/06 05:59:54;;;;;;;9.18;5.10;;;;;;;5.90;66.96;98596.94;5094775;28;20054;-50
2023/12/06 06:02:20;;;;;;;15.50;5.57;;;;;;;5.82;64.90;98601.41;5094317;28;20398;-50
2023/12/06 06:04:46;;;;;;;14.07;7.32;;;;;;;5.56;66.40;98605.09;5094455;28;20020;-49
2023/12/06 06:07:12;;;;;;;15.07;6.38;;;;;;;5.56;66.04;98605.09;5094247;28;20024;-49
2023/12/06 06:09:37;;;;;;;20.88;12.02;;;;;;;5.39;65.56;98605.19;5094353;28;20020;-49
2023/12/06 06:12:03;;;;;;;22.05;6.53;;;;;;;5.29;66.90;98609.78;5094238;28;20035;-48
2023/12/06 06:14:29;;;;;;;26.00;8.57;;;;;;;5.19;66.57;98604.78;5094161;28;20036;-49
2023/12/06 06:16:55;;;;;;;11.57;5.55;;;;;;;5.17;67.38;98609.31;5092908;28;20028;-49
2023/12/06 06:19:21;;;;;;;11.63;5.93;;;;;;;5.56;69.15;98605.09;5094216;28;20595;-49
2023/12/06 06:21:46;;;;;;;15.02;5.60;;;;;;;6.02;67.85;98606.97;5092807;28;20073;-49
2023/12/06 06:24:12;;;;;;;11.15;5.32;;;;;;;6.28;67.10;98617.06;5094047;28;20066;-49
2023/12/06 06:26:38;;;;;;;16.35;6.07;;;;;;;5.95;65.62;98625.91;5094056;28;20030;-49
2023/12/06 06:29:03;;;;;;;13.38;5.93;;;;;;;5.75;66.57;98630.72;5093898;28;20081;-49
2023/12/06 06:31:29;;;;;;;24.27;11.65;;;;;;;5.70;66.54;98629.63;5093716;28;20083;-49
2023/12/06 06:33:56;;;;;;;14.98;8.73;;;;;;;5.45;66.50;98631.50;5093933;28;20493;-49
2023/12/06 06:36:22;;;;;;;15.70;7.45;;;;;;;5.42;68.70;98630.06;5092478;28;20402;-49
2023/12/06 06:38:47;;;;;;;20.05;8.50;;;;;;;5.83;68.62;98639.47;5092504;28;20119;-49
2023/12/06 06:41:13;;;;;;;15.90;8.50;;;;;;;6.13;68.07;98640.47;5093990;28;20059;-49
2023/12/06 06:43:39;;;;;;;24.38;9.55;;;;;;;6.04;66.86;98629.28;5093725;28;20044;-49
2023/12/06 06:46:04;;;;;;;21.55;8.88;;;;;;;5.84;67.21;98639.31;5093664;28;20028;-49
2023/12/06 06:48:31;;;;;;;20.70;8.45;;;;;;;5.57;67.88;98633.59;5093607;28;20482;-49
2023/12/06 06:50:56;;;;;;;14.63;8.57;;;;;;;5.25;68.91;98634.50;5093597;28;20081;-49
2023/12/06 06:53:22;;;;;;;14.20;8.60;;;;;;;4.96;69.45;98629.84;5093825;28;20028;-49
2023/12/06 06:55:48;;;;;;;20.92;8.50;;;;;;;4.65;70.27;98632.31;5093105;28;20031;-49
2023/12/06 06:58:14;;;;;;;16.38;8.75;;;;;;;4.34;70.81;98632.97;5093345;28;20024;-49
2023/12/06 07:00:39;;;;;;;14.45;8.63;;;;;;;4.16;71.60;98639.13;5093394;28;20459;-49
2023/12/06 07:03:05;;;;;;;17.65;6.38;;;;;;;4.36;73.54;98636.22;5092102;28;20028;-49
2023/12/06 07:05:32;;;;;;;14.02;6.93;;;;;;;4.93;74.00;98630.16;5093254;28;20059;-49
2023/12/06 07:07:58;;;;;;;12.95;6.30;;;;;;;5.22;72.47;98628.81;5093126;28;20016;-49
2023/12/06 07:10:24;;;;;;;15.23;9.13;;;;;;;5.59;72.58;98634.22;5093116;28;20486;-49
2023/12/06 07:12:50;;;;;;;10.35;5.97;;;;;;;6.00;71.90;98625.41;5074973;28;20062;-49
2023/12/06 07:15:15;;;;;;;15.63;6.20;;;;;;;6.21;70.75;98632.59;5093056;28;20371;-49
2023/12/06 07:17:45;;;;;;;13.50;6.60;;;;;;;6.03;68.91;98632.06;5093043;28;20086;-49
2023/12/06 07:20:12;;;;;;;18.02;6.18;;;;;;;5.73;69.79;98631.88;5093005;28;20020;-49
2023/12/06 07:22:39;;;;;;;12.20;5.70;;;;;;;5.80;69.54;98645.84;5092975;28;20020;-49
2023/12/06 07:25:05;;;;;;;12.80;5.85;;;;;;;5.58;68.94;98643.00;5093102;28;20402;-49
2023/12/06 07:27:31;;;;;;;12.40;6.65;;;;;;;5.12;69.28;98642.00;5092765;28;20027;-49
2023/12/06 07:29:57;;;;;;;13.57;6.07;;;;;;;4.92;70.93;98644.16;5092814;28;20024;-49
2023/12/06 07:32:23;;;;;;;9.95;6.00;;;;;;;5.02;71.91;98649.19;5091179;28;20044;-49
2023/12/06 07:34:48;;;;;;;9.80;4.88;;;;;;;5.12;71.32;98652.41;5074517;28;20501;-50
2023/12/06 07:37:14;;;;;;;17.70;6.47;;;;;;;5.39;71.44;98644.22;5091297;28;20039;-49
2023/12/06 07:39:40;;;;;;;14.10;6.20;;;;;;;5.74;70.83;98649.13;5091341;28;20464;-50
2023/12/06 07:42:06;;;;;;;13.57;6.15;;;;;;;6.23;70.83;98654.06;5091190;28;20039;-49
2023/12/06 07:44:32;;;;;;;11.23;6.32;;;;;;;6.59;68.82;98651.69;5092516;28;20020;-50
2023/12/06 07:46:57;;;;;;;12.75;6.03;;;;;;;6.79;67.89;98659.03;5092321;28;20031;-50
2023/12/06 07:49:23;;;;;;;19.00;9.07;;;;;;;7.00;66.82;98651.34;5092466;28;20028;-49
2023/12/06 07:51:49;;;;;;;13.52;6.28;;;;;;;7.20;65.90;98666.47;5091095;28;20040;-49
2023/12/06 07:54:16;;;;;;;14.43;6.85;;;;;;;7.33;65.28;98658.03;5092364;28;20020;-49
2023/12/06 07:56:42;;;;;;;12.32;7.00;;;;;;;7.35;65.30;98659.47;5090986;28;20024;-49
2023/12/06 07:59:08;;;;;;;12.77;6.50;;;;;;;7.40;65.06;98659.75;5091050;28;20043;-49
2023/12/06 08:01:34;;;;;;;15.20;7.90;;;;;;;7.25;64.68;98665.97;5092261;28;20055;-49
2023/12/06 08:04:00;;;;;;;21.20;7.78;;;;;;;7.11;65.31;98663.13;5092233;28;20103;-50
2023/12/06 08:06:27;;;;;;;20.55;8.80;;;;;;;6.99;65.36;98667.19;5092162;28;20070;-49
2023/12/06 08:08:53;;;;;;;20.95;10.48;;;;;;;6.88;65.62;98675.41;5090079;28;20020;-49
2023/12/06 08:11:19;;;;;;;23.90;10.23;;;;;;;6.83;66.47;98677.75;5092106;28;20024;-50
2023/12/06 08:13:48;;;;;;;20.88;9.93;;;;;;;7.00;66.26;98676.59;5090760;28;20073;-49
2023/12/06 08:16:14;;;;;;;21.67;10.65;;;;;;;7.04;66.72;98677.88;5092028;28;20031;-49
2023/12/06 08:18:40;;;;;;;25.10;12.18;;;;;;;7.20;66.63;98674.31;5092096;28;20016;-50
2023/12/06 08:21:08;;;;;;;19.02;12.65;;;;;;;7.35;65.74;98682.97;5091998;28;20024;-50
2023/12/06 08:23:35;;;;;;;26.52;13.15;;;;;;;7.46;65.23;98693.94;5090651;28;20035;-50
2023/12/06 08:26:01;;;;;;;22.77;18.90;;;;;;;7.34;65.21;98702.22;5090616;28;20497;-50
2023/12/06 08:28:27;;;;;;;19.92;11.15;;;;;;;7.30;65.21;98700.94;5091879;28;20497;-50
2023/12/06 08:30:52;;;;;;;19.77;10.35;;;;;;;7.42;65.16;98696.09;5090525;28;20120;-49
2023/12/06 08:33:19;;;;;;;71.25;24.45;;;;;;;7.48;66.34;98700.59;5091574;28;20402;-50
2023/12/06 08:35:45;;;;;;;354.02;238.10;;;;;;;7.55;67.35;98695.50;5091777;28;20501;-49
2023/12/06 08:38:11;;;;;;;311.55;191.02;;;;;;;7.62;67.08;98706.81;5091791;28;20016;-50
2023/12/06 08:40:37;;;;;;;367.83;242.57;;;;;;;7.60;67.59;98701.78;5090422;28;20524;-49
2023/12/06 08:43:03;;;;;;;185.52;109.85;;;;;;;7.58;66.68;98706.38;5091989;28;20025;-50
2023/12/06 08:45:29;;;;;;;256.98;155.32;;;;;;;7.42;66.03;98708.34;5090386;28;20028;-49
2023/12/06 08:47:54;;;;;;;85.13;55.13;;;;;;;7.20;66.18;98709.06;5090314;28;20417;-49
2023/12/06 08:50:21;;;;;;;77.35;39.80;;;;;;;6.95;66.38;98708.47;5091660;28;20089;-49
2023/12/06 08:52:46;;;;;;;47.33;25.52;;;;;;;6.80;66.36;98705.81;5091893;28;20024;-50
2023/12/06 08:55:13;;;;;;;76.72;42.85;;;;;;;6.68;66.71;98712.44;5091846;28;20398;-50
2023/12/06 08:57:39;;;;;;;28.85;16.38;;;;;;;6.57;67.22;98708.41;5091577;28;20097;-49
2023/12/06 09:00:07;;;;;;;34.33;20.65;;;;;;;6.55;67.15;98707.78;5091486;28;20027;-50
2023/12/06 09:02:35;;;;;;;26.58;15.75;;;;;;;6.59;67.10;98710.88;5091585;28;20046;-49
2023/12/06 09:05:01;;;;;;;56.33;29.23;;;;;;;6.62;67.65;98717.53;5091554;28;20020;-49
2023/12/06 09:07:27;;;;;;;34.60;17.70;;;;;;;6.80;68.24;98716.25;5091430;28;20489;-49
2023/12/06 09:09:52;;;;;;;36.53;18.10;;;;;;;6.96;67.73;98717.91;5091514;28;20020;-49
2023/12/06 09:12:18;;;;;;;22.88;13.35;;;;;;;7.00;66.63;98719.19;5090177;28;20030;-49
2023/12/06 09:14:44;;;;;;;36.88;14.27;;;;;;;6.98;66.40;98725.56;5090241;28;20157;-50
2023/12/06 09:17:09;;;;;;;27.45;11.98;;;;;;;6.95;66.19;98721.50;5091327;28;20452;-50
2023/12/06 09:19:35;;;;;;;29.50;11.13;;;;;;;7.05;66.72;98729.09;5092754;28;20020;-49
2023/12/06 09:22:01;;;;;;;21.77;10.52;;;;;;;7.09;66.22;98725.13;5093883;28;20524;-49
2023/12/06 09:24:27;;;;;;;24.80;9.20;;;;;;;7.10;66.10;98723.34;5095246;28;20046;-50
2023/12/06 09:26:52;;;;;;;17.23;9.85;;;;;;;7.22;66.80;98731.56;5093838;28;20114;-49
2023/12/06 09:29:18;;;;;;;15.10;7.97;;;;;;;7.33;66.06;98729.31;5095091;28;20028;-50
2023/12/06 09:31:43;;;;;;;20.80;8.88;;;;;;;7.47;65.75;98725.09;5094847;28;20040;-49
2023/12/06 09:34:09;;;;;;;18.50;9.43;;;;;;;7.65;65.82;98732.59;5093824;28;20031;-49
2023/12/06 09:36:35;;;;;;;21.02;8.70;;;;;;;7.84;65.34;98730.41;5093942;28;20524;-50
2023/12/06 09:39:01;;;;;;;22.52;10.00;;;;;;;8.00;64.38;98736.25;5094978;28;20051;-50
2023/12/06 09:41:29;;;;;;;21.98;11.45;;;;;;;8.16;64.66;98730.00;5093734;28;20020;-50
2023/12/06 09:43:55;;;;;;;19.65;9.43;;;;;;;8.30;64.10;98740.63;5094837;28;20047;-49
2023/12/06 09:46:21;;;;;;;15.70;9.18;;;;;;;8.39;63.88;98737.72;5094784;28;20107;-50
2023/12/06 09:48:48;;;;;;;22.35;9.40;;;;;;;8.56;63.58;98734.91;5094680;28;20494;-49
2023/12/06 09:51:15;;;;;;;23.90;10.32;;;;;;;8.72;63.37;98733.84;5094693;28;20398;-50
2023/12/06 09:53:41;;;;;;;22.45;10.32;;;;;;;8.84;63.22;98736.78;5094901;28;20024;-50
2023/12/06 09:56:10;;;;;;;24.17;9.68;;;;;;;9.02;62.83;98734.50;5093257;28;20557;-50
2023/12/06 09:58:37;;;;;;;22.80;9.40;;;;;;;9.38;61.81;98729.16;5094568;28;20034;-50
2023/12/06 10:01:03;;;;;;;19.98;11.25;;;;;;;9.53;61.52;98730.84;5094537;28;20099;-50
2023/12/06 10:03:29;;;;;;;16.85;9.30;;;;;;;9.64;60.83;98725.06;5094518;28;20108;-50
2023/12/06 10:05:56;;;;;;;17.27;9.02;;;;;;;9.70;60.22;98721.69;5094448;28;20493;-50
2023/12/06 10:08:22;;;;;;;18.10;10.02;;;;;;;9.67;60.07;98723.88;5093358;28;20024;-50
2023/12/06 10:10:48;;;;;;;23.45;9.27;;;;;;;9.67;60.01;98711.56;5093315;28;20032;-49
2023/12/06 10:13:14;;;;;;;20.08;8.93;;;;;;;9.99;59.03;98711.94;5093032;28;20040;-50
2023/12/06 10:15:42;;;;;;;28.65;10.13;;;;;;;10.51;57.93;98707.88;5076095;28;20424;-50
2023/12/06 10:18:10;;;;;;;20.55;8.95;;;;;;;11.00;56.25;98708.50;5094218;28;20397;-50
2023/12/06 10:20:36;;;;;;;14.48;8.05;;;;;;;11.29;55.01;98707.28;5092871;28;20028;-50
2023/12/06 10:23:02;;;;;;;13.75;7.47;;;;;;;11.25;54.63;98710.50;5094103;28;20040;-50
2023/12/06 10:25:37;;;;;;;16.73;7.53;;;;;;;11.30;54.68;98706.28;5092752;28;20024;-50
2023/12/06 10:28:03;;;;;;;;;;;;;;;11.48;54.63;98712.72;5094439;28;20024;-50
2023/12/06 10:30:28;;;;;;;;;;;;;;;11.58;55.07;98713.91;5092749;28;19912;-50
2023/12/06 10:32:55;;;;;;;17.40;7.97;;;;;;;11.70;54.56;98714.06;5092054;28;19920;-50
2023/12/06 10:35:22;;;;;;;15.63;6.95;;;;;;;11.72;53.25;98713.88;5093865;28;20063;-50
2023/12/06 10:37:50;;;;;;;23.30;7.90;;;;;;;11.53;53.62;98712.91;5094050;28;20048;-50
2023/12/06 10:40:16;;;;;;;14.00;7.35;;;;;;;11.33;53.24;98707.69;5093812;28;20559;-50
2023/12/06 10:42:48;;;;;;;23.33;8.60;;;;;;;11.20;53.76;98705.88;5094003;28;20016;-50
2023/12/06 10:45:15;;;;;;;23.80;7.70;;;;;;;11.31;54.16;98707.09;5093741;28;20024;-50
2023/12/06 10:47:43;;;;;;;19.08;7.65;;;;;;;11.39;53.98;98714.75;5093627;28;20020;-50
2023/12/06 10:50:11;;;;;;;20.33;9.05;;;;;;;11.37;54.45;98709.72;5093614;28;20099;-50
2023/12/06 10:52:37;;;;;;;20.90;9.10;;;;;;;11.49;54.86;98703.81;5093544;28;20018;-50
2023/12/06 10:55:06;;;;;;;13.90;7.32;;;;;;;11.60;54.95;98698.72;5093477;28;20479;-48
2023/12/06 10:57:32;;;;;;;19.80;8.35;;;;;;;11.92;55.17;98698.06;5092259;28;20436;-48
2023/12/06 11:00:00;;;;;;;14.73;8.45;;;;;;;12.48;54.31;98692.09;5093448;28;20161;-48
2023/12/06 11:02:26;;;;;;;17.67;8.73;;;;;;;13.01;51.69;98690.09;5093373;28;20102;-48
2023/12/06 11:05:05;;;;;;;15.27;7.53;;;;;;;12.73;52.33;98689.50;5093316;28;20106;-48
2023/12/06 11:07:53;;;;;;;17.67;8.60;;;;;;;13.89;52.74;98684.56;5091891;28;20024;-48
2023/12/06 11:10:52;;;;;;;17.88;10.90;;;;;;;15.70;50.72;98686.00;5091888;28;20032;-48
2023/12/06 11:13:38;;;;;;;11.82;8.40;;;;;;;16.74;47.82;98677.09;5093181;28;20016;-48
2023/12/06 11:16:22;;;;;;;;;;;;;;;17.66;47.41;98679.47;5093559;28;20684;-49
2023/12/06 11:18:50;;;;;;;9.50;5.55;;;;;;;17.75;43.66;98676.13;5091712;28;19985;-48
2023/12/06 11:21:19;;;;;;;16.30;5.97;;;;;;;17.87;42.31;98659.31;5093016;28;20506;-46
2023/12/06 11:23:48;;;;;;;11.25;4.45;;;;;;;17.71;40.63;98653.78;5091610;28;20028;-46
2023/12/06 11:26:14;;;;;;;11.52;4.68;;;;;;;17.76;39.63;98658.34;5092835;28;20024;-46
2023/12/06 11:28:41;;;;;;;9.80;3.83;;;;;;;17.82;39.57;98657.34;5092793;28;20031;-46